Latest Weather Observations for Warra

IDT60801

Issued at 10:31 am EST Tuesday 23 May 2017 (issued every 30 minutes, with the page automatically refreshed every 10 minutes)

About weather observations | Map of weather stations | Latest weather observations for TAS | Other Formats
Station Details ID: 097024 Name: WARRA Lat: -43.06 Lon: 146.70 Height: 495.0 m
Data from the previous 72 hours. | See also: Recent months at Warra
Date/Time
EST
Temp
°C
App
Temp
°C
Dew
Point
°C
Rel
Hum
%
Delta-T
°C
Wind Press
QNH
hPa
Press
MSL
hPa
Rain since
9am
mm
Dir  Spd
km/h
Gust
km/h
Spd
kts
Gust
kts
23/10:30am 11.7 10.4 10.1 90 0.8 N 7 13 4 7 - - 0.0
23/10:00am 12.0 10.9 9.9 87 1.1 N 6 11 3 6 - - 0.0
23/09:30am 11.3 9.9 9.7 90 0.8 N 7 13 4 7 - - 0.0
23/09:00am 11.1 9.0 9.7 91 0.7 NNW 11 17 6 9 - - 0.4
23/08:30am 10.7 8.6 9.9 95 0.4 NNW 11 17 6 9 - - 0.4
23/08:00am 10.4 8.8 10.1 98 0.2 N 9 11 5 6 - - 0.4
23/07:30am 9.4 8.0 9.4 100 0.0 NW 7 15 4 8 - - 0.4
23/07:00am 9.2 8.7 9.2 100 0.0 NE 2 7 1 4 - - 0.4
23/06:30am 9.6 9.5 9.5 99 0.1 CALM 0 6 0 3 - - 0.4
23/06:00am 9.6 8.0 8.8 95 0.4 WNW 7 11 4 6 - - 0.2
23/05:30am 9.1 7.6 9.0 99 0.1 SW 7 11 4 6 - - 0.2
23/05:00am 9.3 8.3 8.7 96 0.3 W 4 9 2 5 - - 0.2
23/04:30am 10.4 8.6 8.0 85 1.2 NE 7 11 4 6 - - 0.2
23/04:00am 9.7 8.0 7.5 86 1.1 NNE 6 9 3 5 - - 0.2
23/03:30am 10.5 8.6 7.7 83 1.4 N 7 15 4 8 - - 0.2
23/03:00am 10.3 8.4 7.7 84 1.3 NNE 7 9 4 5 - - 0.2
23/02:30am 10.8 8.7 8.2 84 1.3 NNW 9 15 5 8 - - 0.0
23/02:00am 11.6 8.9 7.5 76 2.0 NNW 11 20 6 11 - - 0.0
23/01:30am 11.5 8.5 7.6 77 1.9 NW 13 19 7 10 - - 0.0
23/01:00am 11.8 8.8 7.7 76 2.0 NW 13 20 7 11 - - 0.0
23/12:30am 10.8 8.1 7.5 80 1.6 NNW 11 15 6 8 - - 0.0
23/12:00am 10.9 8.2 7.4 79 1.7 NW 11 17 6 9 - - 0.0
 
Date/Time
EST
Temp
°C
App
Temp
°C
Dew
Point
°C
Rel
Hum
%
Delta-T
°C
Wind Press
QNH
hPa
Press
MSL
hPa
Rain since
9am
mm
Dir  Spd
km/h
Gust
km/h
Spd
kts
Gust
kts
22/11:30pm 10.5 7.9 7.7 83 1.4 NNW 11 17 6 9 - - 0.0
22/11:00pm 9.3 7.5 7.1 86 1.1 NNW 6 9 3 5 - - 0.0
22/10:30pm 9.6 7.2 7.2 85 1.2 NNW 9 11 5 6 - - 0.0
22/10:00pm 9.7 8.0 7.5 86 1.1 NNW 6 11 3 6 - - 0.0
22/09:30pm 9.2 7.2 7.3 88 0.9 NNW 7 11 4 6 - - 0.0
22/09:00pm 9.2 7.3 7.6 90 0.8 N 7 11 4 6 - - 0.0
22/08:30pm 8.3 6.3 7.2 93 0.5 NW 7 9 4 5 - - 0.0
22/08:00pm 8.4 6.4 7.0 91 0.7 N 7 9 4 5 - - 0.0
22/07:30pm 9.0 7.0 7.1 88 0.9 NNW 7 9 4 5 - - 0.0
22/07:00pm 8.6 6.2 7.2 91 0.7 NW 9 11 5 6 - - 0.0
22/06:30pm 9.3 6.8 8.4 94 0.4 NW 11 17 6 9 - - 0.0
22/06:00pm 8.5 6.8 8.4 99 0.0 NW 7 11 4 6 - - 0.0
22/05:30pm 9.0 7.3 8.4 96 0.3 N 7 11 4 6 - - 0.0
22/05:00pm 9.8 8.2 8.6 92 0.6 NNW 7 11 4 6 - - 0.0
22/04:30pm 10.6 9.0 8.7 88 1.0 NW 7 11 4 6 - - 0.0
22/04:00pm 12.8 11.9 9.4 80 1.8 WNW 4 7 2 4 - - 0.0
22/03:30pm 14.8 13.4 9.6 71 2.8 WNW 7 13 4 7 - - 0.0
22/03:00pm 16.3 15.3 10.4 68 3.2 WNW 6 11 3 6 - - 0.0
22/02:30pm 15.8 13.9 9.2 65 3.5 WNW 9 19 5 10 - - 0.0
22/02:00pm 15.7 12.5 10.0 69 3.1 NNW 17 26 9 14 - - 0.0
22/01:30pm 14.4 12.0 10.2 76 2.2 NW 13 26 7 14 - - 0.0
22/01:00pm 14.7 12.6 9.9 73 2.6 NNW 11 22 6 12 - - 0.0
22/12:30pm 16.1 14.2 10.4 69 3.1 NNW 11 20 6 11 - - 0.0
22/12:00pm 15.6 13.5 11.2 75 2.4 NNW 13 20 7 11 - - 0.0
22/11:30am 15.0 13.3 11.2 78 2.1 NNE 11 19 6 10 - - 0.0
22/11:00am 14.7 12.8 10.5 76 2.3 NNW 11 20 6 11 - - 0.0
22/10:30am 14.5 13.2 11.1 80 1.9 N 9 15 5 8 - - 0.0
22/10:00am 14.3 12.6 11.3 82 1.6 NW 11 17 6 9 - - 0.0
22/09:30am 12.5 11.7 11.2 92 0.7 E 6 13 3 7 - - 0.0
22/09:00am 12.3 12.2 12.1 99 0.1 NNE 4 7 2 4 - - 0.4
22/08:30am 10.2 9.5 10.2 100 0.0 NW 4 11 2 6 - - 0.4
22/08:00am 8.4 7.3 8.4 100 0.0 WSW 4 7 2 4 - - 0.4
22/07:30am 7.8 6.2 7.8 100 0.0 SSW 6 7 3 4 - - 0.4
22/07:00am 7.3 6.3 7.3 100 0.0 W 2 7 1 4 - - 0.4
22/06:30am 7.7 6.4 7.7 100 0.0 S 4 7 2 4 - - 0.4
22/06:00am 7.4 6.4 7.4 100 0.0 SSW 2 7 1 4 - - 0.4
22/05:30am 7.0 5.2 7.0 100 0.0 W 6 7 3 4 - - 0.4
22/05:00am 8.2 6.6 8.2 100 0.0 WNW 6 13 3 7 - - 0.4
22/04:30am 9.0 7.5 9.0 100 0.0 W 7 11 4 6 - - 0.4
22/04:00am 9.1 7.2 9.1 100 0.0 NW 9 15 5 8 - - 0.4
22/03:30am 9.7 8.3 9.6 99 0.1 NNW 7 13 4 7 - - 0.4
22/03:00am 9.2 7.3 9.2 100 0.0 NW 9 15 5 8 - - 0.4
22/02:30am 9.2 7.9 9.1 99 0.1 N 6 9 3 5 - - 0.4
22/02:00am 9.6 8.3 9.3 98 0.2 N 6 11 3 6 - - 0.4
22/01:30am 10.1 9.5 9.0 93 0.6 NNW 2 9 1 5 - - 0.4
22/01:00am 10.9 7.9 9.3 90 0.8 WNW 15 26 8 14 - - 0.4
22/12:30am 10.5 7.6 9.6 94 0.5 WNW 15 26 8 14 - - 0.4
22/12:00am 10.1 7.5 9.3 95 0.4 W 13 20 7 11 - - 0.4
 
Date/Time
EST
Temp
°C
App
Temp
°C
Dew
Point
°C
Rel
Hum
%
Delta-T
°C
Wind Press
QNH
hPa
Press
MSL
hPa
Rain since
9am
mm
Dir  Spd
km/h
Gust
km/h
Spd
kts
Gust
kts
21/11:30pm 10.2 7.2 9.4 95 0.4 WNW 15 26 8 14 - - 0.4
21/11:00pm 10.2 7.8 10.1 99 0.1 WNW 13 24 7 13 - - 0.4
21/10:30pm 9.4 7.6 9.4 100 0.0 WNW 9 17 5 9 - - 0.4
21/10:00pm 9.2 7.3 9.2 100 0.0 WNW 9 13 5 7 - - 0.4
21/09:30pm 10.0 8.3 10.0 100 0.0 W 9 15 5 8 - - 0.4
21/09:00pm 9.7 8.0 9.7 100 0.0 NNW 9 11 5 6 - - 0.4
21/08:30pm 9.5 8.1 9.5 100 0.0 NW 7 9 4 5 - - 0.4
21/08:00pm 10.2 9.5 10.2 100 0.0 N 4 7 2 4 - - 0.4
21/07:30pm 10.2 9.5 10.2 100 0.0 WNW 4 11 2 6 - - 0.4
21/07:00pm 10.1 9.4 10.1 100 0.0 ESE 4 7 2 4 - - 0.2
21/06:30pm 10.3 10.1 10.3 100 0.0 SW 2 9 1 5 - - 0.2
21/06:00pm 10.6 9.6 10.4 99 0.1 SSE 6 7 3 4 - - 0.0
21/05:30pm 11.0 9.9 10.5 97 0.3 W 7 17 4 9 - - 0.0
21/05:00pm 10.9 11.1 10.4 97 0.3 CALM 0 4 0 2 - - 0.0
21/04:30pm 11.2 10.1 10.0 92 0.6 SW 6 9 3 5 - - 0.0
21/04:00pm 11.3 10.0 9.9 91 0.7 WSW 7 11 4 6 - - 0.0
21/03:30pm 11.7 9.9 9.6 87 1.1 WSW 9 17 5 9 - - 0.0
21/03:00pm 12.1 10.4 9.7 85 1.3 WSW 9 15 5 8 - - 0.0
21/02:30pm 12.3 11.0 9.9 85 1.3 WSW 7 11 4 6 - - 0.0
21/02:00pm 12.6 11.0 10.3 86 1.2 WSW 9 15 5 8 - - 0.0
21/01:30pm 12.5 12.2 10.0 85 1.3 SW 2 6 1 3 - - 0.0
21/01:00pm 12.6 11.6 10.3 86 1.2 N 6 9 3 5 - - 0.0
21/12:30pm 13.1 12.8 11.3 89 1.0 NNE 4 7 2 4 - - 0.0
21/12:00pm 13.4 13.4 11.3 87 1.1 NE 2 6 1 3 - - 0.0
21/11:30am 13.0 13.9 13.0 100 0.0 CALM 0 6 0 3 - - 0.0
21/11:00am 11.7 12.2 11.7 100 0.0 CALM 0 0 0 0 - - 0.0
21/10:30am 11.5 12.0 11.5 100 0.0 CALM 0 0 0 0 - - 0.0
21/10:00am 10.4 10.6 10.4 100 0.0 CALM 0 0 0 0 - - 0.0
21/09:30am 9.9 9.9 9.9 100 0.0 CALM 0 0 0 0 - - 0.0
21/09:00am 8.7 8.4 8.7 100 0.0 CALM 0 0 0 0 - - 8.8
21/08:30am 7.7 5.8 7.7 100 0.0 SW 7 7 4 4 - - 8.8
21/08:00am 4.9 2.4 4.9 100 0.0 WSW 7 9 4 5 - - 8.8
21/07:30am 4.9 3.8 4.9 100 0.0 CALM 0 0 0 0 - - 8.8
21/07:00am 4.7 3.5 4.7 100 0.0 CALM 0 0 0 0 - - 8.8
21/06:30am 5.4 4.0 5.4 100 0.0 W 2 7 1 4 - - 8.8
21/06:00am 4.8 2.9 4.8 100 0.0 WSW 4 7 2 4 - - 8.8
21/05:30am 5.6 4.2 5.6 100 0.0 WSW 2 7 1 4 - - 8.8
21/05:00am 4.9 3.4 4.9 100 0.0 WNW 2 7 1 4 - - 8.8
21/04:30am 5.9 3.6 5.9 100 0.0 WNW 7 9 4 5 - - 8.8
21/04:00am 6.6 4.7 6.6 100 0.0 NW 6 7 3 4 - - 8.8
21/03:30am 6.2 4.0 6.2 100 0.0 W 7 11 4 6 - - 8.8
21/03:00am 6.4 3.9 6.4 100 0.0 W 9 9 5 5 - - 8.8
21/02:30am 6.5 5.7 6.5 100 0.0 CALM 0 0 0 0 - - 8.8
21/02:00am 6.2 5.3 6.2 100 0.0 CALM 0 0 0 0 - - 8.8
21/01:30am 6.6 4.7 6.6 100 0.0 W 6 9 3 5 - - 8.8
21/01:00am 7.3 5.5 7.3 100 0.0 NW 6 7 3 4 - - 8.8
21/12:30am 7.7 6.0 7.7 100 0.0 NNW 6 7 3 4 - - 8.8
21/12:00am 9.3 7.8 9.3 100 0.0 N 7 9 4 5 - - 8.6
 
Date/Time
EST
Temp
°C
App
Temp
°C
Dew
Point
°C
Rel
Hum
%
Delta-T
°C
Wind Press
QNH
hPa
Press
MSL
hPa
Rain since
9am
mm
Dir  Spd
km/h
Gust
km/h
Spd
kts
Gust
kts
20/11:30pm 10.2 9.5 10.2 100 0.0 N 4 9 2 5 - - 8.6
20/11:00pm 10.1 9.0 10.1 100 0.0 NE 6 9 3 5 - - 8.6
20/10:30pm 10.1 9.0 10.1 100 0.0 N 6 9 3 5 - - 8.6
20/10:00pm 10.0 8.7 10.0 100 0.0 NNE 7 11 4 6 - - 8.4
20/09:30pm 9.9 8.6 9.9 100 0.0 NNE 7 13 4 7 - - 8.4
20/09:00pm 9.6 8.2 9.6 100 0.0 NE 7 13 4 7 - - 8.2
20/08:30pm 9.5 7.3 9.5 100 0.0 ENE 11 22 6 12 - - 7.8
20/08:00pm 9.4 6.8 9.4 100 0.0 ENE 13 20 7 11 - - 7.8
20/07:30pm 9.4 7.2 9.4 100 0.0 ENE 11 19 6 10 - - 7.6
20/07:00pm 9.5 6.9 9.5 100 0.0 E 13 19 7 10 - - 6.6
20/06:30pm 9.5 6.6 9.5 100 0.0 ENE 15 24 8 13 - - 5.6
20/06:00pm 9.6 6.7 9.6 100 0.0 ENE 15 24 8 13 - - 4.4
20/05:30pm 9.5 6.6 9.5 100 0.0 ENE 15 26 8 14 - - 4.0
20/05:00pm 9.5 6.9 9.5 100 0.0 ENE 13 22 7 12 - - 2.4
20/04:30pm 9.2 7.0 9.2 100 0.0 ENE 11 17 6 9 - - 2.2
20/04:00pm 9.1 6.8 9.1 100 0.0 ENE 11 20 6 11 - - 1.8
20/03:30pm 9.0 7.1 9.0 100 0.0 ENE 9 17 5 9 - - 1.4
20/03:00pm 8.9 7.0 8.9 100 0.0 ENE 9 15 5 8 - - 1.4
20/02:30pm 9.0 6.3 9.0 100 0.0 E 13 20 7 11 - - 1.2
20/02:00pm 9.1 6.4 9.1 100 0.0 ENE 13 20 7 11 - - 0.2
20/01:30pm 9.3 6.7 9.2 99 0.1 ENE 13 22 7 12 - - 0.0
20/01:00pm 9.6 6.5 8.7 94 0.5 ENE 15 24 8 13 - - 0.0
20/12:30pm 9.6 6.8 8.5 93 0.6 ENE 13 24 7 13 - - 0.0
20/12:00pm 9.6 6.9 9.0 96 0.3 ENE 13 24 7 13 - - 0.0
20/11:30am 9.2 6.5 9.1 99 0.1 ENE 13 24 7 13 - - 0.0
20/11:00am 9.1 6.7 8.8 98 0.2 ENE 11 19 6 10 - - 0.0

Other Formats:

Comma delimited format used in spreadsheet applications
http://www.bom.gov.au/fwo/IDT60801/IDT60801.95962.axf

JavaScript Object Notation format (JSON) in row-major order
http://www.bom.gov.au/fwo/IDT60801/IDT60801.95962.json